sensor_id;sensor_type;location;lat;lon;timestamp;pressure;altitude;pressure_sealevel;temperature;humidity
8039;BME280;4062;49.844;8.120;2023-02-23T00:01:53;98946.13;;;14.39;55.24
8039;BME280;4062;49.844;8.120;2023-02-23T00:03:56;98947.06;;;14.38;55.13
8039;BME280;4062;49.844;8.120;2023-02-23T00:06:02;98947.06;;;14.38;55.17
8039;BME280;4062;49.844;8.120;2023-02-23T00:08:03;98950.59;;;14.39;55.24
8039;BME280;4062;49.844;8.120;2023-02-23T00:10:05;98946.19;;;14.38;55.04
8039;BME280;4062;49.844;8.120;2023-02-23T00:12:06;98948.84;;;14.38;55.24
8039;BME280;4062;49.844;8.120;2023-02-23T00:14:07;98941.72;;;14.38;55.18
8039;BME280;4062;49.844;8.120;2023-02-23T00:16:14;98943.53;;;14.38;55.12
8039;BME280;4062;49.844;8.120;2023-02-23T00:18:15;98942.66;;;14.37;55.12
8039;BME280;4062;49.844;8.120;2023-02-23T00:20:17;98943.53;;;14.38;55.25
8039;BME280;4062;49.844;8.120;2023-02-23T00:22:25;98936.50;;;14.37;55.32
8039;BME280;4062;49.844;8.120;2023-02-23T00:24:26;98937.34;;;14.37;55.20
8039;BME280;4062;49.844;8.120;2023-02-23T00:26:30;98938.28;;;14.36;55.09
8039;BME280;4062;49.844;8.120;2023-02-23T00:28:33;98943.59;;;14.36;55.26
8039;BME280;4062;49.844;8.120;2023-02-23T00:30:34;98932.97;;;14.36;55.12
8039;BME280;4062;49.844;8.120;2023-02-23T00:32:35;98935.63;;;14.36;55.15
8039;BME280;4062;49.844;8.120;2023-02-23T00:34:36;98938.28;;;14.36;55.19
8039;BME280;4062;49.844;8.120;2023-02-23T00:36:38;98940.09;;;14.36;55.25
8039;BME280;4062;49.844;8.120;2023-02-23T00:38:40;98939.16;;;14.37;55.28
8039;BME280;4062;49.844;8.120;2023-02-23T00:40:41;98936.50;;;14.37;55.14
8039;BME280;4062;49.844;8.120;2023-02-23T00:42:46;98936.59;;;14.35;55.30
8039;BME280;4062;49.844;8.120;2023-02-23T00:44:47;98937.44;;;14.36;55.22
8039;BME280;4062;49.844;8.120;2023-02-23T00:46:49;98940.09;;;14.36;55.12
8039;BME280;4062;49.844;8.120;2023-02-23T00:48:51;98939.25;;;14.35;55.16
8039;BME280;4062;49.844;8.120;2023-02-23T00:51:03;98939.25;;;14.35;55.17
8039;BME280;4062;49.844;8.120;2023-02-23T00:53:04;98937.50;;;14.34;55.14
8039;BME280;4062;49.844;8.120;2023-02-23T00:55:07;98933.03;;;14.35;55.17
8039;BME280;4062;49.844;8.120;2023-02-23T00:57:09;98938.38;;;14.35;55.29
8039;BME280;4062;49.844;8.120;2023-02-23T00:59:11;98935.72;;;14.35;55.40
8039;BME280;4062;49.844;8.120;2023-02-23T01:01:13;98936.59;;;14.35;55.23
8039;BME280;4062;49.844;8.120;2023-02-23T01:03:14;98934.84;;;14.34;55.31
8039;BME280;4062;49.844;8.120;2023-02-23T01:05:16;98937.50;;;14.34;55.14
8039;BME280;4062;49.844;8.120;2023-02-23T01:07:17;98931.31;;;14.34;55.31
8039;BME280;4062;49.844;8.120;2023-02-23T01:09:18;98939.28;;;14.34;55.39
8039;BME280;4062;49.844;8.120;2023-02-23T01:11:27;98930.47;;;14.33;55.23
8039;BME280;4062;49.844;8.120;2023-02-23T01:13:30;98939.28;;;14.34;55.38
8039;BME280;4062;49.844;8.120;2023-02-23T01:15:31;98933.97;;;14.34;55.30
8039;BME280;4062;49.844;8.120;2023-02-23T01:17:34;98935.78;;;14.33;55.26
8039;BME280;4062;49.844;8.120;2023-02-23T01:19:35;98933.13;;;14.33;55.38
8039;BME280;4062;49.844;8.120;2023-02-23T01:21:40;98931.31;;;14.34;55.29
8039;BME280;4062;49.844;8.120;2023-02-23T01:23:41;98930.47;;;14.33;55.25
8039;BME280;4062;49.844;8.120;2023-02-23T01:25:43;98926.09;;;14.32;55.30
8039;BME280;4062;49.844;8.120;2023-02-23T01:27:45;98930.47;;;14.33;54.97
8039;BME280;4062;49.844;8.120;2023-02-23T01:29:46;98932.25;;;14.33;55.14
8039;BME280;4062;49.844;8.120;2023-02-23T01:31:48;98932.25;;;14.33;55.29
8039;BME280;4062;49.844;8.120;2023-02-23T01:33:59;98930.47;;;14.33;55.21
8039;BME280;4062;49.844;8.120;2023-02-23T01:36:00;98933.13;;;14.33;55.19
8039;BME280;4062;49.844;8.120;2023-02-23T01:38:01;98936.72;;;14.32;55.30
8039;BME280;4062;49.844;8.120;2023-02-23T01:40:03;98932.25;;;14.33;55.23
8039;BME280;4062;49.844;8.120;2023-02-23T01:42:13;98930.53;;;14.32;55.27
8039;BME280;4062;49.844;8.120;2023-02-23T01:46:14;98934.06;;;14.32;55.18
8039;BME280;4062;49.844;8.120;2023-02-23T01:48:21;98930.53;;;14.32;55.38
8039;BME280;4062;49.844;8.120;2023-02-23T01:50:26;98930.53;;;14.32;55.34
8039;BME280;4062;49.844;8.120;2023-02-23T01:52:32;98924.34;;;14.31;55.40
8039;BME280;4062;49.844;8.120;2023-02-23T01:54:49;98921.69;;;14.31;55.33
8039;BME280;4062;49.844;8.120;2023-02-23T01:56:54;98924.34;;;14.31;55.29
8039;BME280;4062;49.844;8.120;2023-02-23T01:59:03;98919.03;;;14.31;55.23
8039;BME280;4062;49.844;8.120;2023-02-23T02:01:06;98923.50;;;14.31;55.45
8039;BME280;4062;49.844;8.120;2023-02-23T02:03:13;98927.03;;;14.31;55.40
8039;BME280;4062;49.844;8.120;2023-02-23T02:05:18;98924.34;;;14.31;55.23
8039;BME280;4062;49.844;8.120;2023-02-23T02:07:26;98922.63;;;14.30;55.31
8039;BME280;4062;49.844;8.120;2023-02-23T02:09:29;98918.19;;;14.31;55.03
8039;BME280;4062;49.844;8.120;2023-02-23T02:11:37;98917.31;;;14.30;55.41
8039;BME280;4062;49.844;8.120;2023-02-23T02:13:38;98926.16;;;14.31;55.27
8039;BME280;4062;49.844;8.120;2023-02-23T02:30:42;98914.75;;;14.29;55.24
8039;BME280;4062;49.844;8.120;2023-02-23T02:33:32;98906.69;;;14.30;55.41
8039;BME280;4062;49.844;8.120;2023-02-23T02:41:07;98904.97;;;14.29;54.95
8039;BME280;4062;49.844;8.120;2023-02-23T02:43:27;98906.78;;;14.29;55.25
8039;BME280;4062;49.844;8.120;2023-02-23T02:45:58;98903.25;;;14.28;55.47
8039;BME280;4062;49.844;8.120;2023-02-23T02:48:09;98903.25;;;14.28;55.25
8039;BME280;4062;49.844;8.120;2023-02-23T02:50:21;98903.25;;;14.28;55.34
8039;BME280;4062;49.844;8.120;2023-02-23T02:52:32;98896.22;;;14.27;55.33
8039;BME280;4062;49.844;8.120;2023-02-23T02:54:40;98900.59;;;14.28;55.19
8039;BME280;4062;49.844;8.120;2023-02-23T02:56:43;98897.91;;;14.28;55.25
8039;BME280;4062;49.844;8.120;2023-02-23T02:58:48;98897.06;;;14.28;55.29
8039;BME280;4062;49.844;8.120;2023-02-23T03:00:52;98900.59;;;14.28;55.22
8039;BME280;4062;49.844;8.120;2023-02-23T03:03:47;98899.72;;;14.28;55.43
8039;BME280;4062;49.844;8.120;2023-02-23T03:06:08;98895.34;;;14.27;55.28
8039;BME280;4062;49.844;8.120;2023-02-23T03:08:43;98889.09;;;14.28;55.24
8039;BME280;4062;49.844;8.120;2023-02-23T03:11:10;98894.41;;;14.28;55.48
8039;BME280;4062;49.844;8.120;2023-02-23T03:14:21;98890.91;;;14.27;55.35
8039;BME280;4062;49.844;8.120;2023-02-23T03:17:03;98895.34;;;14.27;55.37
8039;BME280;4062;49.844;8.120;2023-02-23T03:19:30;98894.50;;;14.26;55.21
8039;BME280;4062;49.844;8.120;2023-02-23T03:24:39;98891.84;;;14.26;55.30
8039;BME280;4062;49.844;8.120;2023-02-23T03:27:06;98897.16;;;14.26;55.55
8039;BME280;4062;49.844;8.120;2023-02-23T03:30:03;98900.66;;;14.27;55.28
8039;BME280;4062;49.844;8.120;2023-02-23T03:32:32;98900.66;;;14.27;55.41
8039;BME280;4062;49.844;8.120;2023-02-23T03:35:05;98898.94;;;14.26;55.31
8039;BME280;4062;49.844;8.120;2023-02-23T03:37:40;98897.16;;;14.26;55.39
8039;BME280;4062;49.844;8.120;2023-02-23T03:40:13;98890.13;;;14.25;55.44
8039;BME280;4062;49.844;8.120;2023-02-23T03:42:37;98892.78;;;14.25;55.37
8039;BME280;4062;49.844;8.120;2023-02-23T03:45:05;98900.75;;;14.25;55.39
8039;BME280;4062;49.844;8.120;2023-02-23T03:47:30;98903.41;;;14.25;55.15
8039;BME280;4062;49.844;8.120;2023-02-23T03:49:53;98905.19;;;14.25;55.29
8039;BME280;4062;49.844;8.120;2023-02-23T03:52:19;98902.53;;;14.25;55.44
8039;BME280;4062;49.844;8.120;2023-02-23T03:54:58;98904.34;;;14.24;55.38
8039;BME280;4062;49.844;8.120;2023-02-23T03:57:20;98900.75;;;14.25;55.51
8039;BME280;4062;49.844;8.120;2023-02-23T03:59:48;98901.69;;;14.24;55.34
8039;BME280;4062;49.844;8.120;2023-02-23T04:02:17;98901.69;;;14.24;55.37
8039;BME280;4062;49.844;8.120;2023-02-23T04:04:40;98898.09;;;14.25;55.36
8039;BME280;4062;49.844;8.120;2023-02-23T04:07:02;98899.03;;;14.24;55.27
8039;BME280;4062;49.844;8.120;2023-02-23T04:09:21;98893.69;;;14.24;55.38
8039;BME280;4062;49.844;8.120;2023-02-23T04:12:20;98904.25;;;14.26;55.24
8039;BME280;4062;49.844;8.120;2023-02-23T04:14:59;98904.34;;;14.24;55.28
8039;BME280;4062;49.844;8.120;2023-02-23T04:17:03;98901.69;;;14.24;55.34
8039;BME280;4062;49.844;8.120;2023-02-23T04:19:05;98911.44;;;14.23;55.42
8039;BME280;4062;49.844;8.120;2023-02-23T04:21:06;98907.00;;;14.24;55.55
8039;BME280;4062;49.844;8.120;2023-02-23T04:23:07;98908.78;;;14.23;55.61
8039;BME280;4062;49.844;8.120;2023-02-23T04:25:09;98907.00;;;14.24;55.36
8039;BME280;4062;49.844;8.120;2023-02-23T04:27:10;98907.91;;;14.23;55.39
8039;BME280;4062;49.844;8.120;2023-02-23T04:29:11;98907.91;;;14.23;55.39
8039;BME280;4062;49.844;8.120;2023-02-23T04:31:12;98910.56;;;14.23;55.45
8039;BME280;4062;49.844;8.120;2023-02-23T04:33:13;98908.78;;;14.23;55.39
8039;BME280;4062;49.844;8.120;2023-02-23T04:35:14;98907.91;;;14.23;55.23
8039;BME280;4062;49.844;8.120;2023-02-23T04:37:15;98913.22;;;14.23;55.31
8039;BME280;4062;49.844;8.120;2023-02-23T04:39:16;98910.56;;;14.23;55.29
8039;BME280;4062;49.844;8.120;2023-02-23T04:41:17;98914.09;;;14.23;55.41
8039;BME280;4062;49.844;8.120;2023-02-23T04:43:19;98914.09;;;14.23;55.37
8039;BME280;4062;49.844;8.120;2023-02-23T04:45:21;98923.88;;;14.23;55.39
8039;BME280;4062;49.844;8.120;2023-02-23T04:47:23;98915.03;;;14.22;55.30
8039;BME280;4062;49.844;8.120;2023-02-23T04:49:24;98920.34;;;14.22;55.29
8039;BME280;4062;49.844;8.120;2023-02-23T04:51:25;98914.16;;;14.22;55.11
8039;BME280;4062;49.844;8.120;2023-02-23T04:53:30;98911.50;;;14.22;55.37
8039;BME280;4062;49.844;8.120;2023-02-23T04:55:31;98915.03;;;14.22;55.25
8039;BME280;4062;49.844;8.120;2023-02-23T04:57:33;98914.16;;;14.22;55.27
8039;BME280;4062;49.844;8.120;2023-02-23T04:59:35;98914.16;;;14.22;55.20
8039;BME280;4062;49.844;8.120;2023-02-23T05:01:36;98914.16;;;14.22;55.46
8039;BME280;4062;49.844;8.120;2023-02-23T05:03:37;98909.72;;;14.22;55.51
8039;BME280;4062;49.844;8.120;2023-02-23T05:05:38;98921.22;;;14.23;55.49
8039;BME280;4062;49.844;8.120;2023-02-23T05:07:39;98919.47;;;14.22;55.34
8039;BME280;4062;49.844;8.120;2023-02-23T05:09:40;98916.81;;;14.22;55.36
8039;BME280;4062;49.844;8.120;2023-02-23T05:11:41;98915.97;;;14.21;55.47
8039;BME280;4062;49.844;8.120;2023-02-23T05:13:42;98913.31;;;14.21;55.57
8039;BME280;4062;49.844;8.120;2023-02-23T05:15:42;98916.81;;;14.22;55.53
8039;BME280;4062;49.844;8.120;2023-02-23T05:17:43;98914.16;;;14.22;55.47
8039;BME280;4062;49.844;8.120;2023-02-23T05:19:44;98914.16;;;14.22;55.46
8039;BME280;4062;49.844;8.120;2023-02-23T05:21:45;98913.31;;;14.21;55.53
8039;BME280;4062;49.844;8.120;2023-02-23T05:23:46;98914.16;;;14.22;55.37
8039;BME280;4062;49.844;8.120;2023-02-23T05:25:48;98915.09;;;14.21;55.38
8039;BME280;4062;49.844;8.120;2023-02-23T05:27:48;98919.47;;;14.22;55.26
8039;BME280;4062;49.844;8.120;2023-02-23T05:29:50;98924.78;;;14.22;55.43
8039;BME280;4062;49.844;8.120;2023-02-23T05:31:51;98917.75;;;14.21;55.29
8039;BME280;4062;49.844;8.120;2023-02-23T05:33:52;98918.63;;;14.21;55.46
8039;BME280;4062;49.844;8.120;2023-02-23T05:35:53;98917.75;;;14.21;55.40
8039;BME280;4062;49.844;8.120;2023-02-23T05:37:53;98918.63;;;14.21;55.51
8039;BME280;4062;49.844;8.120;2023-02-23T05:39:55;98917.75;;;14.21;55.44
8039;BME280;4062;49.844;8.120;2023-02-23T05:41:55;98917.84;;;14.19;55.49
8039;BME280;4062;49.844;8.120;2023-02-23T05:43:56;98919.56;;;14.20;55.38
8039;BME280;4062;49.844;8.120;2023-02-23T05:45:57;98917.75;;;14.21;55.54
8039;BME280;4062;49.844;8.120;2023-02-23T05:47:59;98922.22;;;14.20;55.50
8039;BME280;4062;49.844;8.120;2023-02-23T05:50:00;98916.03;;;14.20;55.45
8039;BME280;4062;49.844;8.120;2023-02-23T05:52:01;98923.06;;;14.21;55.46
8039;BME280;4062;49.844;8.120;2023-02-23T05:54:02;98931.97;;;14.20;55.41
8039;BME280;4062;49.844;8.120;2023-02-23T05:56:06;98924.88;;;14.20;55.45
8039;BME280;4062;49.844;8.120;2023-02-23T05:58:07;98932.84;;;14.20;55.32
8039;BME280;4062;49.844;8.120;2023-02-23T06:00:11;98930.19;;;14.20;55.46
8039;BME280;4062;49.844;8.120;2023-02-23T06:02:13;98924.94;;;14.19;55.45
8039;BME280;4062;49.844;8.120;2023-02-23T06:04:13;98927.53;;;14.20;55.31
8039;BME280;4062;49.844;8.120;2023-02-23T06:06:15;98924.88;;;14.20;55.27
8039;BME280;4062;49.844;8.120;2023-02-23T06:08:16;98929.25;;;14.21;55.34
8039;BME280;4062;49.844;8.120;2023-02-23T06:10:17;98932.69;;;14.23;55.26
8039;BME280;4062;49.844;8.120;2023-02-23T06:12:18;98926.44;;;14.25;55.23
8039;BME280;4062;49.844;8.120;2023-02-23T06:14:19;98934.34;;;14.26;55.35
8039;BME280;4062;49.844;8.120;2023-02-23T06:16:20;98931.53;;;14.29;55.15
8039;BME280;4062;49.844;8.120;2023-02-23T06:18:21;98935.00;;;14.31;55.23
8039;BME280;4062;49.844;8.120;2023-02-23T06:20:22;98929.53;;;14.34;55.23
8039;BME280;4062;49.844;8.120;2023-02-23T06:22:23;98932.97;;;14.36;55.14
8039;BME280;4062;49.844;8.120;2023-02-23T06:24:24;98931.09;;;14.38;55.41
8039;BME280;4062;49.844;8.120;2023-02-23T06:26:25;98929.25;;;14.41;55.20
8039;BME280;4062;49.844;8.120;2023-02-23T06:28:27;98932.69;;;14.43;55.19
8039;BME280;4062;49.844;8.120;2023-02-23T06:30:28;98930.84;;;14.45;55.29
8039;BME280;4062;49.844;8.120;2023-02-23T06:32:29;98941.31;;;14.48;55.10
8039;BME280;4062;49.844;8.120;2023-02-23T06:34:34;98942.94;;;14.50;55.08
8039;BME280;4062;49.844;8.120;2023-02-23T06:36:36;98936.66;;;14.53;55.17
8039;BME280;4062;49.844;8.120;2023-02-23T06:38:37;98937.41;;;14.55;55.15
8039;BME280;4062;49.844;8.120;2023-02-23T06:40:38;98940.88;;;14.57;55.13
8039;BME280;4062;49.844;8.120;2023-02-23T06:42:39;98945.25;;;14.58;55.10
8039;BME280;4062;49.844;8.120;2023-02-23T06:44:40;98941.66;;;14.59;55.17
8039;BME280;4062;49.844;8.120;2023-02-23T06:46:41;98949.53;;;14.61;55.21
8039;BME280;4062;49.844;8.120;2023-02-23T06:48:42;98956.53;;;14.63;55.16
8039;BME280;4062;49.844;8.120;2023-02-23T06:50:43;98955.56;;;14.64;55.20
8039;BME280;4062;49.844;8.120;2023-02-23T06:52:44;98949.41;;;14.64;55.23
8039;BME280;4062;49.844;8.120;2023-02-23T06:54:45;98950.25;;;14.64;55.23
8039;BME280;4062;49.844;8.120;2023-02-23T06:56:47;98956.47;;;14.65;55.07
8039;BME280;4062;49.844;8.120;2023-02-23T06:58:49;98962.63;;;14.65;55.22
8039;BME280;4062;49.844;8.120;2023-02-23T07:00:51;98960.84;;;14.66;55.07
8039;BME280;4062;49.844;8.120;2023-02-23T07:02:53;98964.38;;;14.66;55.07
8039;BME280;4062;49.844;8.120;2023-02-23T07:04:56;98966.16;;;14.66;55.18
8039;BME280;4062;49.844;8.120;2023-02-23T07:06:59;98966.16;;;14.66;55.20
8039;BME280;4062;49.844;8.120;2023-02-23T07:09:00;98965.25;;;14.67;55.17
8039;BME280;4062;49.844;8.120;2023-02-23T07:11:06;98960.84;;;14.66;55.20
8039;BME280;4062;49.844;8.120;2023-02-23T07:13:07;98963.50;;;14.66;55.19
8039;BME280;4062;49.844;8.120;2023-02-23T07:15:09;98963.50;;;14.66;55.05
8039;BME280;4062;49.844;8.120;2023-02-23T07:17:10;98969.69;;;14.66;55.06
8039;BME280;4062;49.844;8.120;2023-02-23T07:19:11;98969.69;;;14.66;55.01
8039;BME280;4062;49.844;8.120;2023-02-23T07:21:12;98976.78;;;14.66;54.96
8039;BME280;4062;49.844;8.120;2023-02-23T07:23:12;98972.34;;;14.66;55.08
8039;BME280;4062;49.844;8.120;2023-02-23T07:25:13;98976.78;;;14.66;55.02
8039;BME280;4062;49.844;8.120;2023-02-23T07:27:14;98977.72;;;14.65;54.96
8039;BME280;4062;49.844;8.120;2023-02-23T07:29:15;98985.69;;;14.65;54.87
8039;BME280;4062;49.844;8.120;2023-02-23T07:31:16;98981.22;;;14.65;55.06
8039;BME280;4062;49.844;8.120;2023-02-23T07:33:17;98990.09;;;14.66;55.00
8039;BME280;4062;49.844;8.120;2023-02-23T07:35:19;98984.81;;;14.64;55.19
8039;BME280;4062;49.844;8.120;2023-02-23T07:37:20;98985.69;;;14.65;55.07
8039;BME280;4062;49.844;8.120;2023-02-23T07:39:21;98984.81;;;14.64;55.12
8039;BME280;4062;49.844;8.120;2023-02-23T07:41:22;98984.91;;;14.63;55.14
8039;BME280;4062;49.844;8.120;2023-02-23T07:43:22;98983.13;;;14.63;55.18
8039;BME280;4062;49.844;8.120;2023-02-23T07:45:23;98980.47;;;14.63;55.11
8039;BME280;4062;49.844;8.120;2023-02-23T07:47:25;98984.91;;;14.63;54.91
8039;BME280;4062;49.844;8.120;2023-02-23T07:49:30;98985.78;;;14.63;55.08
8039;BME280;4062;49.844;8.120;2023-02-23T07:51:32;98982.25;;;14.63;54.98
8039;BME280;4062;49.844;8.120;2023-02-23T07:53:33;98992.03;;;14.62;55.13
8039;BME280;4062;49.844;8.120;2023-02-23T07:55:34;98990.22;;;14.63;54.98
8039;BME280;4062;49.844;8.120;2023-02-23T07:57:37;98991.16;;;14.62;54.88
8039;BME280;4062;49.844;8.120;2023-02-23T07:59:38;98989.44;;;14.61;55.06
8039;BME280;4062;49.844;8.120;2023-02-23T08:01:39;98991.25;;;14.60;55.15
8039;BME280;4062;49.844;8.120;2023-02-23T08:03:40;98991.25;;;14.60;55.22
8039;BME280;4062;49.844;8.120;2023-02-23T08:05:41;99003.66;;;14.60;54.96
8039;BME280;4062;49.844;8.120;2023-02-23T08:07:44;99004.53;;;14.60;54.96
8039;BME280;4062;49.844;8.120;2023-02-23T08:09:47;99009.94;;;14.59;55.11
8039;BME280;4062;49.844;8.120;2023-02-23T08:11:47;99000.16;;;14.59;55.19
8039;BME280;4062;49.844;8.120;2023-02-23T08:13:48;99001.97;;;14.59;55.03
8039;BME280;4062;49.844;8.120;2023-02-23T08:15:49;99005.53;;;14.58;54.90
8039;BME280;4062;49.844;8.120;2023-02-23T08:17:50;99011.72;;;14.58;55.04
8039;BME280;4062;49.844;8.120;2023-02-23T08:19:51;99017.97;;;14.57;55.06
8039;BME280;4062;49.844;8.120;2023-02-23T08:21:52;99016.19;;;14.58;55.12
8039;BME280;4062;49.844;8.120;2023-02-23T08:23:53;99017.09;;;14.57;55.08
8039;BME280;4062;49.844;8.120;2023-02-23T08:25:55;99014.44;;;14.57;54.98
8039;BME280;4062;49.844;8.120;2023-02-23T08:27:56;99015.28;;;14.57;55.12
8039;BME280;4062;49.844;8.120;2023-02-23T08:29:59;99015.38;;;14.56;54.83
8039;BME280;4062;49.844;8.120;2023-02-23T08:32:04;99014.44;;;14.57;54.76
8039;BME280;4062;49.844;8.120;2023-02-23T08:34:05;99010.06;;;14.56;55.01
8039;BME280;4062;49.844;8.120;2023-02-23T08:36:07;99007.41;;;14.56;54.93
8039;BME280;4062;49.844;8.120;2023-02-23T08:38:08;99014.50;;;14.55;55.02
8039;BME280;4062;49.844;8.120;2023-02-23T08:40:11;99007.50;;;14.54;54.84
8039;BME280;4062;49.844;8.120;2023-02-23T08:42:15;99012.81;;;14.54;55.02
8039;BME280;4062;49.844;8.120;2023-02-23T08:44:17;99014.59;;;14.53;55.04
8039;BME280;4062;49.844;8.120;2023-02-23T08:46:18;99011.00;;;14.54;55.14
8039;BME280;4062;49.844;8.120;2023-02-23T08:48:20;99017.25;;;14.53;55.13
8039;BME280;4062;49.844;8.120;2023-02-23T08:50:22;99018.13;;;14.54;55.01
8039;BME280;4062;49.844;8.120;2023-02-23T08:52:23;99015.47;;;14.54;55.14
8039;BME280;4062;49.844;8.120;2023-02-23T08:54:25;99016.41;;;14.53;55.05
8039;BME280;4062;49.844;8.120;2023-02-23T08:56:26;99015.47;;;14.54;54.91
8039;BME280;4062;49.844;8.120;2023-02-23T08:58:29;99023.44;;;14.54;55.01
8039;BME280;4062;49.844;8.120;2023-02-23T09:00:30;99018.97;;;14.54;55.08
8039;BME280;4062;49.844;8.120;2023-02-23T09:02:31;99014.59;;;14.53;54.93
8039;BME280;4062;49.844;8.120;2023-02-23T09:04:32;99018.13;;;14.54;54.95
8039;BME280;4062;49.844;8.120;2023-02-23T09:06:36;99020.69;;;14.56;55.11
8039;BME280;4062;49.844;8.120;2023-02-23T09:08:37;99028.59;;;14.57;54.95
8039;BME280;4062;49.844;8.120;2023-02-23T09:10:39;99025.09;;;14.57;54.87
8039;BME280;4062;49.844;8.120;2023-02-23T09:12:40;99032.13;;;14.58;54.94
8039;BME280;4062;49.844;8.120;2023-02-23T09:14:41;99030.31;;;14.58;55.17
8039;BME280;4062;49.844;8.120;2023-02-23T09:16:42;99031.19;;;14.59;54.88
8039;BME280;4062;49.844;8.120;2023-02-23T09:18:44;99041.84;;;14.59;55.14
8039;BME280;4062;49.844;8.120;2023-02-23T09:20:45;99040.03;;;14.59;54.89
8039;BME280;4062;49.844;8.120;2023-02-23T09:22:46;99040.88;;;14.60;54.82
8039;BME280;4062;49.844;8.120;2023-02-23T09:24:50;99040.03;;;14.59;55.03
8039;BME280;4062;49.844;8.120;2023-02-23T09:26:51;99045.34;;;14.59;54.98
8039;BME280;4062;49.844;8.120;2023-02-23T09:28:53;99047.06;;;14.60;54.82
8039;BME280;4062;49.844;8.120;2023-02-23T09:30:54;99040.88;;;14.60;54.86
8039;BME280;4062;49.844;8.120;2023-02-23T09:32:55;99042.69;;;14.59;54.97
8039;BME280;4062;49.844;8.120;2023-02-23T09:34:56;99043.53;;;14.60;54.99
8039;BME280;4062;49.844;8.120;2023-02-23T09:36:57;99045.34;;;14.59;54.87
8039;BME280;4062;49.844;8.120;2023-02-23T09:38:57;99048.84;;;14.60;55.00
8039;BME280;4062;49.844;8.120;2023-02-23T09:40:58;99049.81;;;14.59;54.92
8039;BME280;4062;49.844;8.120;2023-02-23T09:45:47;99047.16;;;14.59;55.03
8039;BME280;4062;49.844;8.120;2023-02-23T09:48:23;99050.66;;;14.59;55.23
8039;BME280;4062;49.844;8.120;2023-02-23T09:50:27;99053.31;;;14.59;54.73
8039;BME280;4062;49.844;8.120;2023-02-23T09:52:46;99054.25;;;14.58;55.01
8039;BME280;4062;49.844;8.120;2023-02-23T09:54:48;99051.59;;;14.58;55.10
8039;BME280;4062;49.844;8.120;2023-02-23T09:56:50;99059.56;;;14.58;54.96
8039;BME280;4062;49.844;8.120;2023-02-23T09:58:52;99054.25;;;14.58;54.91
8039;BME280;4062;49.844;8.120;2023-02-23T10:01:29;99056.91;;;14.58;54.98
8039;BME280;4062;49.844;8.120;2023-02-23T10:06:08;99063.16;;;14.57;55.08
8039;BME280;4062;49.844;8.120;2023-02-23T10:08:37;99057.00;;;14.57;55.09
8039;BME280;4062;49.844;8.120;2023-02-23T10:11:03;99065.81;;;14.57;54.92
8039;BME280;4062;49.844;8.120;2023-02-23T10:14:16;99064.97;;;14.57;55.02
8039;BME280;4062;49.844;8.120;2023-02-23T10:21:04;99060.66;;;14.54;55.02
8039;BME280;4062;49.844;8.120;2023-02-23T10:23:16;99062.34;;;14.55;55.03
8039;BME280;4062;49.844;8.120;2023-02-23T10:25:24;99063.31;;;14.54;54.88
8039;BME280;4062;49.844;8.120;2023-02-23T10:27:35;99066.81;;;14.54;55.02
8039;BME280;4062;49.844;8.120;2023-02-23T10:31:50;99064.25;;;14.53;54.91
8039;BME280;4062;49.844;8.120;2023-02-23T10:33:58;99065.97;;;14.54;55.00
8039;BME280;4062;49.844;8.120;2023-02-23T10:36:17;99063.38;;;14.52;54.92
8039;BME280;4062;49.844;8.120;2023-02-23T10:38:19;99074.88;;;14.53;54.98
8039;BME280;4062;49.844;8.120;2023-02-23T10:40:25;99066.91;;;14.53;55.00
8039;BME280;4062;49.844;8.120;2023-02-23T10:42:27;99066.91;;;14.53;55.08
8039;BME280;4062;49.844;8.120;2023-02-23T10:44:28;99066.09;;;14.51;55.03
8039;BME280;4062;49.844;8.120;2023-02-23T10:46:39;99076.66;;;14.52;55.17
8039;BME280;4062;49.844;8.120;2023-02-23T10:48:41;99067.84;;;14.52;54.96
8039;BME280;4062;49.844;8.120;2023-02-23T10:50:43;99074.94;;;14.51;54.94
8039;BME280;4062;49.844;8.120;2023-02-23T10:52:46;99085.56;;;14.51;55.15
8039;BME280;4062;49.844;8.120;2023-02-23T10:54:51;99080.25;;;14.51;55.03
8039;BME280;4062;49.844;8.120;2023-02-23T10:56:52;99079.41;;;14.51;54.99
8039;BME280;4062;49.844;8.120;2023-02-23T10:58:58;99078.50;;;14.50;55.16
8039;BME280;4062;49.844;8.120;2023-02-23T11:01:02;99077.59;;;14.51;55.01
8039;BME280;4062;49.844;8.120;2023-02-23T11:03:24;99071.34;;;14.52;55.07
8039;BME280;4062;49.844;8.120;2023-02-23T11:05:55;99075.81;;;14.52;54.95
8039;BME280;4062;49.844;8.120;2023-02-23T11:10:26;99077.47;;;14.54;55.06
8039;BME280;4062;49.844;8.120;2023-02-23T11:12:39;99073.94;;;14.54;55.01
8039;BME280;4062;49.844;8.120;2023-02-23T11:14:42;99070.31;;;14.55;54.95
8039;BME280;4062;49.844;8.120;2023-02-23T11:16:43;99076.53;;;14.56;54.99
8039;BME280;4062;49.844;8.120;2023-02-23T11:19:00;99075.59;;;14.57;55.02
8039;BME280;4062;49.844;8.120;2023-02-23T11:21:02;99075.59;;;14.57;54.99
8039;BME280;4062;49.844;8.120;2023-02-23T11:23:22;99072.94;;;14.57;54.59
8039;BME280;4062;49.844;8.120;2023-02-23T11:25:31;99072.94;;;14.57;54.87
8039;BME280;4062;49.844;8.120;2023-02-23T11:27:32;99078.16;;;14.58;55.03
8039;BME280;4062;49.844;8.120;2023-02-23T11:29:37;99064.97;;;14.57;54.92
8039;BME280;4062;49.844;8.120;2023-02-23T11:31:39;99076.44;;;14.57;54.86
8039;BME280;4062;49.844;8.120;2023-02-23T11:33:41;99072.00;;;14.58;55.04
8039;BME280;4062;49.844;8.120;2023-02-23T11:35:43;99071.13;;;14.57;55.02
8039;BME280;4062;49.844;8.120;2023-02-23T11:37:44;99073.78;;;14.57;55.11
8039;BME280;4062;49.844;8.120;2023-02-23T11:42:24;99072.00;;;14.58;54.92
8039;BME280;4062;49.844;8.120;2023-02-23T11:44:26;99069.41;;;14.56;55.06
8039;BME280;4062;49.844;8.120;2023-02-23T11:46:30;99067.63;;;14.57;54.98
8039;BME280;4062;49.844;8.120;2023-02-23T11:48:35;99064.09;;;14.56;55.16
8039;BME280;4062;49.844;8.120;2023-02-23T11:50:44;99068.56;;;14.56;55.00
8039;BME280;4062;49.844;8.120;2023-02-23T11:52:54;99063.22;;;14.56;54.83
8039;BME280;4062;49.844;8.120;2023-02-23T11:55:05;99064.09;;;14.56;55.00
8039;BME280;4062;49.844;8.120;2023-02-23T11:57:08;99064.09;;;14.56;55.12
8039;BME280;4062;49.844;8.120;2023-02-23T11:59:17;99056.09;;;14.56;54.94
8039;BME280;4062;49.844;8.120;2023-02-23T12:01:41;99054.38;;;14.55;55.14
8039;BME280;4062;49.844;8.120;2023-02-23T12:03:53;99046.41;;;14.55;55.02
8039;BME280;4062;49.844;8.120;2023-02-23T12:05:56;99051.72;;;14.55;54.97
8039;BME280;4062;49.844;8.120;2023-02-23T12:08:16;99040.22;;;14.54;55.11
8039;BME280;4062;49.844;8.120;2023-02-23T12:10:32;99044.69;;;14.54;54.97
8039;BME280;4062;49.844;8.120;2023-02-23T12:12:56;99042.91;;;14.54;54.96